createdAt,value
2022-08-26T03:49:22.209Z,96648.53
2022-08-26T03:51:25.066Z,96648.47
2022-08-26T03:53:28.130Z,96638.47
2022-08-26T03:55:33.253Z,96644.47
2022-08-26T03:57:36.174Z,96645.94
2022-08-26T03:59:38.986Z,96650.38
2022-08-26T04:01:44.390Z,96646.47
2022-08-26T04:04:00.184Z,96644.81
2022-08-26T04:06:05.669Z,96644.41
2022-08-26T04:08:08.642Z,96648.47
2022-08-26T04:10:15.661Z,96649.47
2022-08-26T04:12:23.394Z,96654.59
2022-08-26T04:14:29.021Z,96654.28
2022-08-26T04:16:32.482Z,96650.47
2022-08-26T04:18:38.035Z,96654.22
2022-08-26T04:20:47.652Z,96652.88
2022-08-26T04:22:51.878Z,96657.94
2022-08-26T04:24:54.697Z,96652.50
2022-08-26T04:26:58.834Z,96659.53
2022-08-26T04:29:02.596Z,96661.13
2022-08-26T04:31:05.923Z,96654.41
2022-08-26T04:33:12.943Z,96655.53
2022-08-26T04:35:16.319Z,96660.13
2022-08-26T04:37:19.969Z,96658.72
2022-08-26T04:39:27.677Z,96654.13
2022-08-26T04:41:31.539Z,96663.84
2022-08-26T04:43:34.488Z,96657.34
2022-08-26T04:45:37.934Z,96653.53
2022-08-26T04:47:41.809Z,96655.44
2022-08-26T04:49:44.757Z,96663.31
2022-08-26T04:51:48.942Z,96663.31
2022-08-26T04:53:52.574Z,96650.25
2022-08-26T04:55:56.855Z,96660.00
2022-08-26T04:58:00.648Z,96652.66
2022-08-26T05:00:03.743Z,96656.19
2022-08-26T05:02:06.961Z,96653.78
2022-08-26T05:04:10.007Z,96654.78
2022-08-26T05:06:13.184Z,96649.06
2022-08-26T05:08:17.111Z,96646.34
2022-08-26T05:10:21.712Z,96649.56
2022-08-26T05:12:26.346Z,96646.56
2022-08-26T05:14:29.150Z,96651.38
2022-08-26T05:16:32.006Z,96653.78
2022-08-26T05:18:36.062Z,96656.19
2022-08-26T05:20:42.825Z,96649.69
2022-08-26T05:22:45.671Z,96655.59
2022-08-26T05:24:48.628Z,96658.00
2022-08-26T05:26:51.413Z,96658.84
2022-08-26T05:28:56.656Z,96658.22
2022-08-26T05:30:59.522Z,96655.53
2022-08-26T05:33:03.693Z,96651.69
2022-08-26T05:35:08.731Z,96659.53
2022-08-26T05:37:13.619Z,96653.81
2022-08-26T05:39:16.679Z,96663.84
2022-08-26T05:41:36.348Z,96660.03
2022-08-26T05:43:39.461Z,96663.25
2022-08-26T05:45:47.480Z,96668.66
2022-08-26T05:47:52.145Z,96674.09
2022-08-26T05:49:55.373Z,96677.31
2022-08-26T05:51:58.226Z,96676.72
2022-08-26T05:54:03.547Z,96686.16
2022-08-26T05:56:07.766Z,96676.13
2022-08-26T05:58:11.309Z,96676.13
2022-08-26T06:00:16.275Z,96677.22
2022-08-26T06:02:21.173Z,96677.22
2022-08-26T06:04:28.263Z,96676.13
2022-08-26T06:06:34.416Z,96682.34
2022-08-26T06:08:38.087Z,96682.84
2022-08-26T06:10:45.421Z,96683.38
2022-08-26T06:12:48.751Z,96689.59
2022-08-26T06:14:51.793Z,96686.56
2022-08-26T06:16:54.978Z,96689.59
2022-08-26T06:18:59.226Z,96689.59
2022-08-26T06:21:12.685Z,96683.06
2022-08-26T06:23:35.955Z,96688.19
2022-08-26T06:25:40.223Z,96689.59
2022-08-26T06:27:43.113Z,96689.88
2022-08-26T06:29:49.456Z,96696.41
2022-08-26T06:31:53.264Z,96685.56
2022-08-26T06:33:57.155Z,96692.09
2022-08-26T06:36:02.585Z,96695.59
2022-08-26T06:38:07.883Z,96698.00
2022-08-26T06:40:14.963Z,96698.00
2022-08-26T06:42:19.214Z,96700.13
2022-08-26T06:44:22.146Z,96699.53
2022-08-26T06:46:27.805Z,96713.28
2022-08-26T06:48:30.861Z,96711.06
2022-08-26T06:50:34.010Z,96708.91
2022-08-26T06:52:38.285Z,96713.72
2022-08-26T06:54:43.153Z,96704.28
2022-08-26T06:56:47.892Z,96712.09
2022-08-26T06:58:51.514Z,96713.72
2022-08-26T07:00:54.401Z,96711.00
2022-08-26T07:02:57.336Z,96711.00
2022-08-26T07:05:00.606Z,96715.03
2022-08-26T07:07:03.911Z,96722.38
2022-08-26T07:09:11.104Z,96702.28
2022-08-26T07:11:15.952Z,96713.31
2022-08-26T07:13:30.790Z,96717.06
2022-08-26T07:15:35.951Z,96715.97
2022-08-26T07:17:39.135Z,96723.50
2022-08-26T07:19:43.628Z,96728.31
2022-08-26T07:21:46.817Z,96723.19
2022-08-26T07:23:54.616Z,96727.00
2022-08-26T07:26:06.614Z,96730.81
2022-08-26T07:28:10.080Z,96732.25
2022-08-26T07:30:14.927Z,96732.25
2022-08-26T07:32:21.019Z,96741.69
2022-08-26T07:34:26.906Z,96740.56
2022-08-26T07:36:30.257Z,96737.28
2022-08-26T07:38:33.901Z,96739.06
2022-08-26T07:40:36.863Z,96737.06
2022-08-26T07:42:41.130Z,96741.41
2022-08-26T07:44:46.315Z,96747.31
2022-08-26T07:46:52.237Z,96738.09
2022-08-26T07:48:56.377Z,96745.59
2022-08-26T07:51:00.192Z,96740.69
2022-08-26T07:53:03.539Z,96740.06
2022-08-26T07:55:10.618Z,96747.13
2022-08-26T07:57:14.013Z,96745.22
2022-08-26T07:59:19.531Z,96741.69
2022-08-26T08:01:24.112Z,96744.59
2022-08-26T08:03:27.627Z,96738.38
2022-08-26T08:05:33.377Z,96744.13
2022-08-26T08:07:44.697Z,96743.31
2022-08-26T08:09:49.654Z,96739.19
2022-08-26T08:11:53.156Z,96746.53
2022-08-26T08:13:56.937Z,96739.47
2022-08-26T08:16:01.851Z,96742.50
2022-08-26T08:18:06.828Z,96734.06
2022-08-26T08:20:18.869Z,96740.59
2022-08-26T08:22:24.210Z,96735.47
2022-08-26T08:24:28.227Z,96734.06
2022-08-26T08:26:31.291Z,96740.78
2022-08-26T08:28:34.272Z,96744.31
2022-08-26T08:30:43.392Z,96732.53
2022-08-26T08:32:47.738Z,96735.75
2022-08-26T08:34:50.927Z,96736.56
2022-08-26T08:36:56.867Z,96739.28
2022-08-26T08:39:01.149Z,96729.81
2022-08-26T08:41:07.353Z,96734.44
2022-08-26T08:43:12.693Z,96735.22
2022-08-26T08:45:21.323Z,96746.09
2022-08-26T08:47:32.037Z,96745.28
2022-08-26T08:49:36.597Z,96746.91
2022-08-26T08:51:48.223Z,96748.53
2022-08-26T08:53:54.753Z,96755.56
2022-08-26T08:56:16.256Z,96751.25
2022-08-26T08:58:24.273Z,96759.41
2022-08-26T09:00:30.777Z,96755.56
2022-08-26T09:02:40.309Z,96758.28
2022-08-26T09:05:03.757Z,96765.00
2022-08-26T09:07:13.267Z,96763.41
2022-08-26T09:09:24.329Z,96762.09
2022-08-26T09:11:28.419Z,96756.16
2022-08-26T09:13:32.056Z,96768.13
2022-08-26T09:15:48.120Z,96755.16
2022-08-26T09:18:01.719Z,96763.41
2022-08-26T09:20:19.139Z,96777.06
2022-08-26T09:22:34.098Z,96766.81
2022-08-26T09:24:42.129Z,96768.25
2022-08-26T09:26:52.749Z,96763.69
2022-08-26T09:28:59.378Z,96773.97
2022-08-26T09:31:12.186Z,96774.25
2022-08-26T09:33:19.477Z,96772.94
2022-08-26T09:35:30.917Z,96771.66
2022-08-26T09:37:36.954Z,96772.25
2022-08-26T09:39:40.791Z,96774.66
2022-08-26T09:41:44.495Z,96769.22
2022-08-26T09:44:14.768Z,96771.66
2022-08-26T09:46:27.533Z,96778.47
2022-08-26T09:48:36.123Z,96770.34
2022-08-26T09:50:53.213Z,96778.47
2022-08-26T09:53:12.924Z,96774.25
2022-08-26T09:55:23.621Z,96769.91
2022-08-26T09:57:29.500Z,96766.59
2022-08-26T09:59:32.220Z,96765.00
2022-08-26T10:01:38.324Z,96766.09
2022-08-26T10:03:42.039Z,96769.63
2022-08-26T10:05:57.520Z,96773.44
2022-08-26T10:08:10.192Z,96770.41
2022-08-26T10:10:20.163Z,96763.09
2022-08-26T10:12:24.320Z,96764.69
2022-08-26T10:14:31.939Z,96761.78
2022-08-26T10:16:43.666Z,96760.19
2022-08-26T10:18:51.235Z,96757.16
2022-08-26T10:21:03.844Z,96756.56
2022-08-26T10:23:12.293Z,96760.88
2022-08-26T10:25:21.488Z,96759.00
2022-08-26T10:27:33.002Z,96753.56
2022-08-26T10:29:41.264Z,96761.09
2022-08-26T10:31:51.479Z,96754.56
2022-08-26T10:33:58.894Z,96759.19
2022-08-26T10:36:34.109Z,96756.97
2022-08-26T10:38:45.565Z,96757.28
2022-08-26T10:40:57.359Z,96753.44
2022-08-26T10:43:11.418Z,96754.88
2022-08-26T10:45:16.398Z,96761.41
2022-08-26T10:47:28.612Z,96755.97
2022-08-26T10:49:31.884Z,96754.06
2022-08-26T10:51:45.739Z,96752.94
2022-08-26T10:53:55.867Z,96752.16
2022-08-26T10:56:06.453Z,96747.03
2022-08-26T10:58:50.373Z,96749.75
2022-08-26T11:01:17.658Z,96746.50
2022-08-26T11:03:36.158Z,96743.50
2022-08-26T11:05:40.944Z,96748.13
2022-08-26T11:07:48.487Z,96749.75
2022-08-26T11:09:52.537Z,96747.03
2022-08-26T11:11:55.409Z,96752.44
2022-08-26T11:14:04.368Z,96744.31
2022-08-26T11:16:10.380Z,96751.03
2022-08-26T11:18:34.028Z,96746.00
2022-08-26T11:20:42.076Z,96748.22
2022-08-26T11:22:48.181Z,96749.22
2022-08-26T11:25:12.834Z,96752.94
2022-08-26T11:28:06.712Z,96745.31
2022-08-26T11:30:31.119Z,96745.81
2022-08-26T11:32:49.573Z,96739.28
2022-08-26T11:34:57.030Z,96744.69
2022-08-26T11:37:01.717Z,96741.41
2022-08-26T11:39:20.174Z,96741.41
2022-08-26T11:41:31.530Z,96740.28
2022-08-26T11:43:35.407Z,96741.41
2022-08-26T11:45:42.202Z,96733.84
2022-08-26T11:47:46.613Z,96735.25
2022-08-26T11:50:06.476Z,96735.56
2022-08-26T11:52:12.086Z,96736.06
2022-08-26T11:54:30.712Z,96729.72
2022-08-26T11:56:40.818Z,96725.50
2022-08-26T11:58:45.514Z,96729.22
2022-08-26T12:00:52.756Z,96719.38
2022-08-26T12:02:56.874Z,96714.63
2022-08-26T12:05:01.276Z,96715.16
2022-08-26T12:07:08.790Z,96717.13
2022-08-26T12:09:14.529Z,96724.59
2022-08-26T12:11:24.609Z,96718.25
2022-08-26T12:13:27.681Z,96721.16
2022-08-26T12:15:33.192Z,96716.72
2022-08-26T12:17:36.250Z,96719.63
2022-08-26T12:19:40.931Z,96719.84
2022-08-26T12:21:49.160Z,96716.31
2022-08-26T12:23:54.595Z,96717.44
2022-08-26T12:26:06.016Z,96710.09
2022-08-26T12:28:13.484Z,96710.25
2022-08-26T12:30:22.566Z,96713.97
2022-08-26T12:32:26.597Z,96720.50
2022-08-26T12:34:31.916Z,96716.19
2022-08-26T12:36:42.425Z,96715.06
2022-08-26T12:38:48.839Z,96714.44
2022-08-26T12:40:52.158Z,96709.53
2022-08-26T12:42:56.460Z,96718.97
2022-08-26T12:45:03.762Z,96708.91
2022-08-26T12:47:11.831Z,96710.03
2022-08-26T12:49:19.115Z,96710.22
2022-08-26T12:51:25.591Z,96701.75
2022-08-26T12:53:30.472Z,96698.53
2022-08-26T12:55:40.239Z,96694.09
2022-08-26T12:57:43.178Z,96700.84
2022-08-26T12:59:46.038Z,96688.25
2022-08-26T13:01:51.125Z,96687.44
2022-08-26T13:03:54.030Z,96699.59
2022-08-26T13:06:16.146Z,96681.81
2022-08-26T13:08:27.405Z,96688.66
2022-08-26T13:10:36.707Z,96686.56
2022-08-26T13:12:41.171Z,96682.88
2022-08-26T13:14:44.024Z,96684.88
2022-08-26T13:16:47.531Z,96682.47
2022-08-26T13:18:55.402Z,96674.75
2022-08-26T13:20:58.214Z,96675.97
2022-08-26T13:23:01.994Z,96677.41
2022-08-26T13:25:05.322Z,96676.38
2022-08-26T13:27:10.796Z,96678.13
2022-08-26T13:29:14.344Z,96681.75
2022-08-26T13:31:17.704Z,96675.28
2022-08-26T13:33:22.940Z,96682.44
2022-08-26T13:35:27.947Z,96679.72
2022-08-26T13:37:35.009Z,96675.41
2022-08-26T13:39:39.449Z,96670.88
2022-08-26T13:41:43.441Z,96672.69
2022-08-26T13:43:50.055Z,96663.25
2022-08-26T13:45:52.878Z,96669.00
2022-08-26T13:47:55.838Z,96660.84
2022-08-26T13:50:03.423Z,96665.16
2022-08-26T13:52:10.674Z,96663.44
2022-08-26T13:54:13.586Z,96658.50
2022-08-26T13:56:16.827Z,96656.59
2022-08-26T13:58:19.632Z,96657.59
2022-08-26T14:00:23.064Z,96660.84
2022-08-26T14:02:26.552Z,96651.59
2022-08-26T14:04:30.899Z,96646.63
2022-08-26T14:06:34.400Z,96648.75
2022-08-26T14:08:40.073Z,96647.34
2022-08-26T14:10:43.185Z,96647.84
2022-08-26T14:12:46.453Z,96649.94
2022-08-26T14:14:49.336Z,96641.97
2022-08-26T14:16:59.477Z,96633.22
2022-08-26T14:19:06.188Z,96640.25
2022-08-26T14:21:12.721Z,96642.66
2022-08-26T14:23:16.160Z,96637.53
2022-08-26T14:25:23.682Z,96631.59
2022-08-26T14:27:27.298Z,96625.06
2022-08-26T14:29:30.549Z,96629.38
2022-08-26T14:31:34.692Z,96623.97
2022-08-26T14:33:38.931Z,96635.63
2022-08-26T14:35:47.187Z,96623.16
2022-08-26T14:37:53.615Z,96628.59
2022-08-26T14:39:56.759Z,96629.38
2022-08-26T14:42:04.445Z,96619.31
2022-08-26T14:44:11.499Z,96630.50
2022-08-26T14:46:16.686Z,96623.44
2022-08-26T14:48:19.756Z,96619.44
2022-08-26T14:50:24.787Z,96619.44
2022-08-26T14:52:27.715Z,96621.34
2022-08-26T14:54:29.707Z,96625.97
2022-08-26T14:56:33.867Z,96621.34
2022-08-26T14:58:38.091Z,96619.75
2022-08-26T15:00:40.913Z,96618.13
2022-08-26T15:02:44.625Z,96614.63
2022-08-26T15:04:47.673Z,96612.69
2022-08-26T15:06:51.233Z,96613.19
2022-08-26T15:08:54.204Z,96615.91
2022-08-26T15:10:57.221Z,96616.53
2022-08-26T15:13:01.127Z,96609.00
2022-08-26T15:15:06.545Z,96610.94
2022-08-26T15:17:09.425Z,96611.72
2022-08-26T15:19:13.941Z,96610.63
2022-08-26T15:21:16.797Z,96600.56
2022-08-26T15:23:19.766Z,96610.94
2022-08-26T15:25:24.375Z,96604.47
2022-08-26T15:27:27.731Z,96611.53
2022-08-26T15:29:30.671Z,96606.88
2022-08-26T15:31:37.325Z,96611.72
2022-08-26T15:33:40.445Z,96604.06
2022-08-26T15:35:43.834Z,96609.38
2022-08-26T15:37:46.991Z,96608.78
2022-08-26T15:39:50.500Z,96604.63
2022-08-26T15:41:53.403Z,96596.16
2022-08-26T15:43:56.761Z,96592.34
2022-08-26T15:46:00.041Z,96588.81
2022-08-26T15:48:04.815Z,96587.56
2022-08-26T15:50:09.168Z,96583.13
2022-08-26T15:52:12.221Z,96579.78
2022-08-26T15:54:18.631Z,96585.72
2022-08-26T15:56:21.916Z,96579.31
2022-08-26T15:58:27.062Z,96583.78
2022-08-26T16:00:30.462Z,96588.31
2022-08-26T16:02:33.603Z,96590.72
2022-08-26T16:04:38.210Z,96590.41
2022-08-26T16:06:45.730Z,96594.41
2022-08-26T16:08:52.230Z,96591.19
2022-08-26T16:10:55.239Z,96596.63
2022-08-26T16:12:59.360Z,96598.56
2022-08-26T16:15:02.270Z,96595.34
2022-08-26T16:17:05.162Z,96607.34
2022-08-26T16:19:09.226Z,96607.28
2022-08-26T16:21:18.278Z,96615.28
2022-08-26T16:23:22.506Z,96619.97
2022-08-26T16:25:26.255Z,96617.47
2022-08-26T16:27:29.080Z,96612.56
2022-08-26T16:29:34.652Z,96606.56
2022-08-26T16:31:38.410Z,96608.41
2022-08-26T16:33:41.605Z,96609.22
2022-08-26T16:35:45.125Z,96596.53
2022-08-26T16:37:49.407Z,96597.56
2022-08-26T16:39:52.284Z,96592.56
2022-08-26T16:41:55.413Z,96598.09
2022-08-26T16:43:59.242Z,96605.00
2022-08-26T16:46:02.237Z,96603.69
2022-08-26T16:48:07.156Z,96611.81
2022-08-26T16:50:13.271Z,96609.09
2022-08-26T16:52:16.631Z,96599.00
2022-08-26T16:54:20.929Z,96600.97
2022-08-26T16:56:33.626Z,96600.09
2022-08-26T16:58:37.370Z,96603.19
2022-08-26T17:00:40.625Z,96603.38
2022-08-26T17:02:44.091Z,96596.88
2022-08-26T17:04:50.202Z,96603.00
2022-08-26T17:06:53.589Z,96602.41
2022-08-26T17:08:56.550Z,96594.78
2022-08-26T17:11:04.717Z,96596.38
2022-08-26T17:13:07.808Z,96602.00
2022-08-26T17:15:12.709Z,96600.59
2022-08-26T17:17:15.569Z,96605.41
2022-08-26T17:19:19.294Z,96603.69
2022-08-26T17:21:23.164Z,96606.19
2022-08-26T17:23:25.972Z,96604.59
2022-08-26T17:25:31.990Z,96600.28
2022-08-26T17:27:36.517Z,96606.63
2022-08-26T17:29:39.396Z,96601.91
2022-08-26T17:31:43.539Z,96598.16
2022-08-26T17:33:53.414Z,96591.72
2022-08-26T17:35:57.887Z,96597.56
2022-08-26T17:38:00.859Z,96590.31
2022-08-26T17:40:06.450Z,96594.88
2022-08-26T17:42:09.380Z,96588.72
2022-08-26T17:44:13.722Z,96593.25
2022-08-26T17:46:16.614Z,96587.72
2022-08-26T17:48:19.657Z,96601.19
2022-08-26T17:50:22.810Z,96598.97
2022-08-26T17:52:25.712Z,96593.38
2022-08-26T17:54:28.621Z,96590.97
2022-08-26T17:56:34.122Z,96589.84
2022-08-26T17:58:38.151Z,96592.75
2022-08-26T18:00:47.974Z,96590.34
2022-08-26T18:02:51.859Z,96589.72
2022-08-26T18:04:54.896Z,96593.56
2022-08-26T18:06:57.779Z,96588.25
2022-08-26T18:09:01.149Z,96590.25
2022-08-26T18:11:04.164Z,96593.25
2022-08-26T18:13:07.046Z,96595.94
2022-08-26T18:15:12.102Z,96588.34
2022-08-26T18:17:17.499Z,96592.97
2022-08-26T18:19:24.059Z,96599.50
2022-08-26T18:21:28.554Z,96606.00
2022-08-26T18:23:31.875Z,96601.19
2022-08-26T18:25:35.176Z,96607.19
2022-08-26T18:27:39.365Z,96609.22
2022-08-26T18:29:45.439Z,96613.94
2022-08-26T18:31:49.635Z,96623.97
2022-08-26T18:33:53.950Z,96624.50
2022-08-26T18:35:58.060Z,96624.78
2022-08-26T18:38:01.397Z,96623.41
2022-08-26T18:40:16.103Z,96623.41
2022-08-26T18:42:19.028Z,96626.09
2022-08-26T18:44:23.361Z,96625.59
2022-08-26T18:46:28.372Z,96635.34
2022-08-26T18:48:31.974Z,96633.13
2022-08-26T18:50:40.193Z,96635.75
2022-08-26T18:52:43.781Z,96641.34
2022-08-26T18:54:46.723Z,96635.34
2022-08-26T18:56:49.649Z,96638.84
2022-08-26T18:58:52.583Z,96634.53
2022-08-26T19:00:55.445Z,96632.31
2022-08-26T19:02:58.365Z,96637.16
2022-08-26T19:05:01.574Z,96637.16
2022-08-26T19:07:06.594Z,96644.28
2022-08-26T19:09:11.925Z,96643.25
2022-08-26T19:11:18.807Z,96640.56
2022-08-26T19:13:36.237Z,96638.44
2022-08-26T19:15:40.320Z,96647.19
2022-08-26T19:17:43.145Z,96650.22
2022-08-26T19:19:46.842Z,96646.69
2022-08-26T19:21:49.752Z,96645.59
2022-08-26T19:23:57.932Z,96650.41
2022-08-26T19:26:04.692Z,96645.19
2022-08-26T19:28:07.589Z,96648.19
2022-08-26T19:30:11.535Z,96644.38
2022-08-26T19:32:14.203Z,96651.22
2022-08-26T19:34:20.259Z,96651.81
2022-08-26T19:36:26.642Z,96655.13
2022-08-26T19:38:29.454Z,96655.41
2022-08-26T19:40:36.163Z,96656.53
2022-08-26T19:42:39.058Z,96655.22
2022-08-26T19:44:58.425Z,96653.91
2022-08-26T19:47:01.575Z,96663.66
2022-08-26T19:49:05.228Z,96667.97
2022-08-26T19:51:08.291Z,96664.97
2022-08-26T19:53:11.249Z,96663.34
2022-08-26T19:55:17.047Z,96663.34
2022-08-26T19:57:21.414Z,96664.16
2022-08-26T19:59:24.706Z,96668.16
2022-08-26T20:01:27.789Z,96662.75
2022-08-26T20:03:31.041Z,96667.91
2022-08-26T20:05:34.047Z,96660.03
2022-08-26T20:07:36.976Z,96665.47
2022-08-26T20:09:39.852Z,96664.66
2022-08-26T20:11:42.586Z,96667.38
2022-08-26T20:13:48.973Z,96660.34
2022-08-26T20:15:51.810Z,96665.75
2022-08-26T20:17:55.533Z,96657.44
2022-08-26T20:20:32.601Z,96663.66
2022-08-26T20:22:37.322Z,96656.63
2022-08-26T20:24:40.688Z,96655.03
2022-08-26T20:26:45.259Z,96655.34
2022-08-26T20:28:51.043Z,96659.16
2022-08-26T20:30:55.067Z,96661.06
2022-08-26T20:32:57.902Z,96663.78
2022-08-26T20:35:01.537Z,96659.41
2022-08-26T20:37:05.369Z,96661.88
2022-08-26T20:39:10.828Z,96658.34
2022-08-26T20:41:14.388Z,96660.25
2022-08-26T20:43:17.302Z,96659.72
2022-08-26T20:45:22.686Z,96657.00
2022-08-26T20:47:25.555Z,96667.06
2022-08-26T20:49:32.359Z,96668.16
2022-08-26T20:51:39.097Z,96669.28
2022-08-26T20:53:44.233Z,96670.38
2022-08-26T20:55:47.070Z,96671.78
2022-08-26T20:57:49.987Z,96675.91
2022-08-26T20:59:52.810Z,96660.81
2022-08-26T21:01:57.414Z,96665.75
2022-08-26T21:04:00.648Z,96674.25
2022-08-26T21:06:06.086Z,96672.59
2022-08-26T21:08:09.511Z,96669.38
